sensor_id;sensor_type;location;lat;lon;timestamp;temperature;humidity
28177;DHT22;15461;41.652;9.378;2023-05-10T00:01:31;18.30;99.90
28177;DHT22;15461;41.652;9.378;2023-05-10T00:03:57;18.30;99.90
28177;DHT22;15461;41.652;9.378;2023-05-10T00:06:23;18.20;99.90
28177;DHT22;15461;41.652;9.378;2023-05-10T00:08:49;18.20;99.90
28177;DHT22;15461;41.652;9.378;2023-05-10T00:11:15;18.10;99.90
28177;DHT22;15461;41.652;9.378;2023-05-10T00:13:41;18.10;99.90
28177;DHT22;15461;41.652;9.378;2023-05-10T00:16:06;18.10;99.90
28177;DHT22;15461;41.652;9.378;2023-05-10T00:18:32;18.00;99.90
28177;DHT22;15461;41.652;9.378;2023-05-10T00:20:58;17.90;99.90
28177;DHT22;15461;41.652;9.378;2023-05-10T00:23:24;17.80;99.90
28177;DHT22;15461;41.652;9.378;2023-05-10T00:25:50;17.80;99.90
28177;DHT22;15461;41.652;9.378;2023-05-10T00:28:16;17.70;99.90
28177;DHT22;15461;41.652;9.378;2023-05-10T00:30:42;17.60;99.90
28177;DHT22;15461;41.652;9.378;2023-05-10T00:33:08;17.60;99.90
28177;DHT22;15461;41.652;9.378;2023-05-10T00:35:33;17.60;99.90
28177;DHT22;15461;41.652;9.378;2023-05-10T00:37:59;17.60;99.90
28177;DHT22;15461;41.652;9.378;2023-05-10T00:40:25;17.50;99.90
28177;DHT22;15461;41.652;9.378;2023-05-10T00:42:57;17.50;99.90
28177;DHT22;15461;41.652;9.378;2023-05-10T00:45:23;17.40;99.90
28177;DHT22;15461;41.652;9.378;2023-05-10T00:47:51;17.40;99.90
28177;DHT22;15461;41.652;9.378;2023-05-10T00:50:21;17.30;99.90
28177;DHT22;15461;41.652;9.378;2023-05-10T00:52:47;17.30;99.90
28177;DHT22;15461;41.652;9.378;2023-05-10T00:55:14;17.30;99.90
28177;DHT22;15461;41.652;9.378;2023-05-10T00:57:40;17.30;99.90
28177;DHT22;15461;41.652;9.378;2023-05-10T01:00:08;17.30;99.90
28177;DHT22;15461;41.652;9.378;2023-05-10T01:02:35;17.30;99.90
28177;DHT22;15461;41.652;9.378;2023-05-10T01:05:02;17.30;99.90
28177;DHT22;15461;41.652;9.378;2023-05-10T01:07:29;17.30;99.90
28177;DHT22;15461;41.652;9.378;2023-05-10T01:09:55;17.30;99.90
28177;DHT22;15461;41.652;9.378;2023-05-10T01:12:21;17.30;99.90
28177;DHT22;15461;41.652;9.378;2023-05-10T01:14:48;17.30;99.90
28177;DHT22;15461;41.652;9.378;2023-05-10T01:17:14;17.30;99.90
28177;DHT22;15461;41.652;9.378;2023-05-10T01:19:41;17.30;99.90
28177;DHT22;15461;41.652;9.378;2023-05-10T01:25:38;17.30;99.90
28177;DHT22;15461;41.652;9.378;2023-05-10T01:34:16;17.30;99.90
28177;DHT22;15461;41.652;9.378;2023-05-10T01:36:51;17.20;99.90
28177;DHT22;15461;41.652;9.378;2023-05-10T01:42:14;17.10;99.90
28177;DHT22;15461;41.652;9.378;2023-05-10T01:44:48;17.10;99.90
28177;DHT22;15461;41.652;9.378;2023-05-10T01:47:23;17.10;99.90
28177;DHT22;15461;41.652;9.378;2023-05-10T01:49:54;17.10;99.90
28177;DHT22;15461;41.652;9.378;2023-05-10T01:52:26;17.10;99.90
28177;DHT22;15461;41.652;9.378;2023-05-10T01:55:00;17.00;99.90
28177;DHT22;15461;41.652;9.378;2023-05-10T01:57:34;16.90;99.90
28177;DHT22;15461;41.652;9.378;2023-05-10T02:00:02;17.00;99.90
28177;DHT22;15461;41.652;9.378;2023-05-10T02:02:44;16.90;99.90
28177;DHT22;15461;41.652;9.378;2023-05-10T02:05:12;16.90;99.90
28177;DHT22;15461;41.652;9.378;2023-05-10T02:07:39;16.90;99.90
28177;DHT22;15461;41.652;9.378;2023-05-10T02:10:07;16.90;99.90
28177;DHT22;15461;41.652;9.378;2023-05-10T02:12:43;16.90;99.90
28177;DHT22;15461;41.652;9.378;2023-05-10T02:15:11;16.90;99.90
28177;DHT22;15461;41.652;9.378;2023-05-10T02:17:39;16.80;99.90
28177;DHT22;15461;41.652;9.378;2023-05-10T02:20:06;16.80;99.90
28177;DHT22;15461;41.652;9.378;2023-05-10T02:22:35;16.80;99.90
28177;DHT22;15461;41.652;9.378;2023-05-10T02:25:01;16.80;99.90
28177;DHT22;15461;41.652;9.378;2023-05-10T02:27:28;16.90;99.90
28177;DHT22;15461;41.652;9.378;2023-05-10T02:29:55;16.90;99.90
28177;DHT22;15461;41.652;9.378;2023-05-10T02:32:24;16.90;99.90
28177;DHT22;15461;41.652;9.378;2023-05-10T02:34:51;16.90;99.90
28177;DHT22;15461;41.652;9.378;2023-05-10T02:37:19;16.90;99.90
28177;DHT22;15461;41.652;9.378;2023-05-10T02:39:47;16.90;99.90
28177;DHT22;15461;41.652;9.378;2023-05-10T02:42:16;16.90;99.90
28177;DHT22;15461;41.652;9.378;2023-05-10T02:44:46;17.00;99.90
28177;DHT22;15461;41.652;9.378;2023-05-10T02:47:14;17.00;99.90
28177;DHT22;15461;41.652;9.378;2023-05-10T02:49:40;17.00;99.90
28177;DHT22;15461;41.652;9.378;2023-05-10T02:52:08;17.00;99.90
28177;DHT22;15461;41.652;9.378;2023-05-10T02:54:50;17.00;99.90
28177;DHT22;15461;41.652;9.378;2023-05-10T02:57:24;17.10;99.90
28177;DHT22;15461;41.652;9.378;2023-05-10T02:59:52;17.10;99.90
28177;DHT22;15461;41.652;9.378;2023-05-10T03:02:17;17.10;99.90
28177;DHT22;15461;41.652;9.378;2023-05-10T03:04:44;17.10;99.90
28177;DHT22;15461;41.652;9.378;2023-05-10T03:07:10;17.00;99.90
28177;DHT22;15461;41.652;9.378;2023-05-10T03:09:36;17.00;99.90
28177;DHT22;15461;41.652;9.378;2023-05-10T03:12:39;16.90;99.90
28177;DHT22;15461;41.652;9.378;2023-05-10T03:15:59;16.90;99.90
28177;DHT22;15461;41.652;9.378;2023-05-10T03:18:06;16.90;99.90
28177;DHT22;15461;41.652;9.378;2023-05-10T03:20:41;16.90;99.90
28177;DHT22;15461;41.652;9.378;2023-05-10T03:23:20;16.90;99.90
28177;DHT22;15461;41.652;9.378;2023-05-10T03:25:48;16.90;99.90
28177;DHT22;15461;41.652;9.378;2023-05-10T03:28:16;16.90;99.90
28177;DHT22;15461;41.652;9.378;2023-05-10T03:30:43;16.90;99.90
28177;DHT22;15461;41.652;9.378;2023-05-10T03:33:11;17.00;99.90
28177;DHT22;15461;41.652;9.378;2023-05-10T03:35:42;16.90;99.90
28177;DHT22;15461;41.652;9.378;2023-05-10T03:38:10;16.90;99.90
28177;DHT22;15461;41.652;9.378;2023-05-10T03:40:36;16.90;99.90
28177;DHT22;15461;41.652;9.378;2023-05-10T03:43:02;16.90;99.90
28177;DHT22;15461;41.652;9.378;2023-05-10T03:45:28;16.80;99.90
28177;DHT22;15461;41.652;9.378;2023-05-10T03:47:54;16.90;99.90
28177;DHT22;15461;41.652;9.378;2023-05-10T03:50:20;16.80;99.90
28177;DHT22;15461;41.652;9.378;2023-05-10T03:52:47;16.80;99.90
28177;DHT22;15461;41.652;9.378;2023-05-10T03:55:13;16.80;99.90
28177;DHT22;15461;41.652;9.378;2023-05-10T03:57:39;16.90;99.90
28177;DHT22;15461;41.652;9.378;2023-05-10T04:00:06;17.00;99.90
28177;DHT22;15461;41.652;9.378;2023-05-10T04:02:40;17.00;99.90
28177;DHT22;15461;41.652;9.378;2023-05-10T04:05:08;17.00;99.90
28177;DHT22;15461;41.652;9.378;2023-05-10T04:07:34;17.10;99.90
28177;DHT22;15461;41.652;9.378;2023-05-10T04:10:01;17.10;99.90
28177;DHT22;15461;41.652;9.378;2023-05-10T04:12:27;17.10;99.90
28177;DHT22;15461;41.652;9.378;2023-05-10T04:14:52;17.10;99.90
28177;DHT22;15461;41.652;9.378;2023-05-10T04:17:18;17.10;99.90
28177;DHT22;15461;41.652;9.378;2023-05-10T04:19:44;17.10;99.90
28177;DHT22;15461;41.652;9.378;2023-05-10T04:22:10;17.10;99.90
28177;DHT22;15461;41.652;9.378;2023-05-10T04:24:36;17.10;99.90
28177;DHT22;15461;41.652;9.378;2023-05-10T04:27:02;17.10;99.90
28177;DHT22;15461;41.652;9.378;2023-05-10T04:29:28;17.20;99.90
28177;DHT22;15461;41.652;9.378;2023-05-10T04:31:54;17.20;99.90
28177;DHT22;15461;41.652;9.378;2023-05-10T04:34:22;17.20;99.90
28177;DHT22;15461;41.652;9.378;2023-05-10T04:36:47;17.30;99.90
28177;DHT22;15461;41.652;9.378;2023-05-10T04:39:13;17.30;99.90
28177;DHT22;15461;41.652;9.378;2023-05-10T04:41:39;17.30;99.90
28177;DHT22;15461;41.652;9.378;2023-05-10T04:44:05;17.30;99.90
28177;DHT22;15461;41.652;9.378;2023-05-10T04:46:31;17.30;99.90
28177;DHT22;15461;41.652;9.378;2023-05-10T04:48:58;17.40;99.90
28177;DHT22;15461;41.652;9.378;2023-05-10T04:51:24;17.40;99.90
28177;DHT22;15461;41.652;9.378;2023-05-10T04:53:50;17.40;99.90
28177;DHT22;15461;41.652;9.378;2023-05-10T04:56:16;17.40;99.90
28177;DHT22;15461;41.652;9.378;2023-05-10T04:58:42;17.40;99.90
28177;DHT22;15461;41.652;9.378;2023-05-10T05:01:08;17.30;99.90
28177;DHT22;15461;41.652;9.378;2023-05-10T05:03:36;17.40;99.90
28177;DHT22;15461;41.652;9.378;2023-05-10T05:06:02;17.40;99.90
28177;DHT22;15461;41.652;9.378;2023-05-10T05:08:28;17.30;99.90
28177;DHT22;15461;41.652;9.378;2023-05-10T05:10:54;17.40;99.90
28177;DHT22;15461;41.652;9.378;2023-05-10T05:13:20;17.40;99.90
28177;DHT22;15461;41.652;9.378;2023-05-10T05:15:46;17.50;99.90
28177;DHT22;15461;41.652;9.378;2023-05-10T05:18:12;17.50;99.90
28177;DHT22;15461;41.652;9.378;2023-05-10T05:20:38;17.50;99.90
28177;DHT22;15461;41.652;9.378;2023-05-10T05:23:04;17.60;99.90
28177;DHT22;15461;41.652;9.378;2023-05-10T05:25:30;17.60;99.90
28177;DHT22;15461;41.652;9.378;2023-05-10T05:27:56;17.70;99.90
28177;DHT22;15461;41.652;9.378;2023-05-10T05:30:22;17.80;99.90
28177;DHT22;15461;41.652;9.378;2023-05-10T05:32:48;17.80;99.90
28177;DHT22;15461;41.652;9.378;2023-05-10T05:35:13;17.90;99.90
28177;DHT22;15461;41.652;9.378;2023-05-10T05:37:39;18.00;99.90
28177;DHT22;15461;41.652;9.378;2023-05-10T05:40:06;18.10;99.90
28177;DHT22;15461;41.652;9.378;2023-05-10T05:42:32;18.20;99.90
28177;DHT22;15461;41.652;9.378;2023-05-10T05:44:58;18.30;99.90
28177;DHT22;15461;41.652;9.378;2023-05-10T05:47:24;18.40;99.90
28177;DHT22;15461;41.652;9.378;2023-05-10T05:49:50;18.50;99.90
28177;DHT22;15461;41.652;9.378;2023-05-10T05:52:16;18.70;99.90
28177;DHT22;15461;41.652;9.378;2023-05-10T05:54:42;18.80;99.90
28177;DHT22;15461;41.652;9.378;2023-05-10T05:57:08;18.80;99.90
28177;DHT22;15461;41.652;9.378;2023-05-10T05:59:34;18.90;99.90
28177;DHT22;15461;41.652;9.378;2023-05-10T06:02:00;19.00;99.90
28177;DHT22;15461;41.652;9.378;2023-05-10T06:04:26;19.00;99.90
28177;DHT22;15461;41.652;9.378;2023-05-10T06:06:52;19.10;99.90
28177;DHT22;15461;41.652;9.378;2023-05-10T06:09:17;19.20;99.90
28177;DHT22;15461;41.652;9.378;2023-05-10T06:11:43;19.30;99.90
28177;DHT22;15461;41.652;9.378;2023-05-10T06:14:09;19.40;99.90
28177;DHT22;15461;41.652;9.378;2023-05-10T06:16:35;19.50;99.90
28177;DHT22;15461;41.652;9.378;2023-05-10T06:19:02;19.50;99.90
28177;DHT22;15461;41.652;9.378;2023-05-10T06:21:28;19.60;99.90
28177;DHT22;15461;41.652;9.378;2023-05-10T06:23:54;19.60;99.90
28177;DHT22;15461;41.652;9.378;2023-05-10T06:26:20;19.70;99.90
28177;DHT22;15461;41.652;9.378;2023-05-10T06:28:46;19.70;99.90
28177;DHT22;15461;41.652;9.378;2023-05-10T06:31:12;19.80;99.90
28177;DHT22;15461;41.652;9.378;2023-05-10T06:33:38;19.90;99.90
28177;DHT22;15461;41.652;9.378;2023-05-10T06:36:04;20.10;99.90
28177;DHT22;15461;41.652;9.378;2023-05-10T06:38:32;20.20;99.90
28177;DHT22;15461;41.652;9.378;2023-05-10T06:40:58;20.30;99.90
28177;DHT22;15461;41.652;9.378;2023-05-10T06:43:25;20.40;99.90
28177;DHT22;15461;41.652;9.378;2023-05-10T06:45:51;20.40;99.90
28177;DHT22;15461;41.652;9.378;2023-05-10T06:48:20;20.40;99.90
28177;DHT22;15461;41.652;9.378;2023-05-10T06:50:59;20.60;99.90
28177;DHT22;15461;41.652;9.378;2023-05-10T06:53:25;20.70;99.90
28177;DHT22;15461;41.652;9.378;2023-05-10T06:55:51;20.80;99.90
28177;DHT22;15461;41.652;9.378;2023-05-10T06:58:17;20.90;99.90
28177;DHT22;15461;41.652;9.378;2023-05-10T07:00:43;21.00;99.90
28177;DHT22;15461;41.652;9.378;2023-05-10T07:03:11;21.10;99.90
28177;DHT22;15461;41.652;9.378;2023-05-10T07:05:37;21.10;99.90
28177;DHT22;15461;41.652;9.378;2023-05-10T07:08:03;21.10;99.90
28177;DHT22;15461;41.652;9.378;2023-05-10T07:10:29;21.20;99.90
28177;DHT22;15461;41.652;9.378;2023-05-10T07:12:55;21.20;99.90
28177;DHT22;15461;41.652;9.378;2023-05-10T07:15:21;21.40;99.90
28177;DHT22;15461;41.652;9.378;2023-05-10T07:17:47;21.60;99.90
28177;DHT22;15461;41.652;9.378;2023-05-10T07:20:13;21.70;99.90
28177;DHT22;15461;41.652;9.378;2023-05-10T07:22:39;21.80;99.90
28177;DHT22;15461;41.652;9.378;2023-05-10T07:25:06;21.90;99.90
28177;DHT22;15461;41.652;9.378;2023-05-10T07:27:32;21.90;99.90
28177;DHT22;15461;41.652;9.378;2023-05-10T07:29:58;22.00;99.90
28177;DHT22;15461;41.652;9.378;2023-05-10T07:32:24;22.00;99.90
28177;DHT22;15461;41.652;9.378;2023-05-10T07:34:50;21.90;99.90
28177;DHT22;15461;41.652;9.378;2023-05-10T07:37:15;22.00;99.90
28177;DHT22;15461;41.652;9.378;2023-05-10T07:39:41;22.10;99.90
28177;DHT22;15461;41.652;9.378;2023-05-10T07:42:07;22.00;99.90
28177;DHT22;15461;41.652;9.378;2023-05-10T07:44:33;22.00;99.90
28177;DHT22;15461;41.652;9.378;2023-05-10T07:46:59;22.20;99.90
28177;DHT22;15461;41.652;9.378;2023-05-10T07:49:25;22.30;99.90
28177;DHT22;15461;41.652;9.378;2023-05-10T07:51:51;22.50;99.90
28177;DHT22;15461;41.652;9.378;2023-05-10T07:54:17;22.60;99.90
28177;DHT22;15461;41.652;9.378;2023-05-10T07:56:43;22.60;99.90
28177;DHT22;15461;41.652;9.378;2023-05-10T07:59:16;22.60;99.90
28177;DHT22;15461;41.652;9.378;2023-05-10T08:01:43;22.70;99.90
28177;DHT22;15461;41.652;9.378;2023-05-10T08:04:09;22.80;99.90
28177;DHT22;15461;41.652;9.378;2023-05-10T08:06:34;23.00;99.90
28177;DHT22;15461;41.652;9.378;2023-05-10T08:09:00;23.00;99.90
28177;DHT22;15461;41.652;9.378;2023-05-10T08:11:26;23.10;99.90
28177;DHT22;15461;41.652;9.378;2023-05-10T08:13:53;23.30;99.90
28177;DHT22;15461;41.652;9.378;2023-05-10T08:16:19;23.20;99.90
28177;DHT22;15461;41.652;9.378;2023-05-10T08:18:46;23.20;99.90
28177;DHT22;15461;41.652;9.378;2023-05-10T08:21:13;23.30;99.90
28177;DHT22;15461;41.652;9.378;2023-05-10T08:23:39;23.40;99.90
28177;DHT22;15461;41.652;9.378;2023-05-10T08:26:05;23.40;99.90
28177;DHT22;15461;41.652;9.378;2023-05-10T08:28:31;23.50;99.90
28177;DHT22;15461;41.652;9.378;2023-05-10T08:30:57;23.70;99.90
28177;DHT22;15461;41.652;9.378;2023-05-10T08:33:23;23.80;99.90
28177;DHT22;15461;41.652;9.378;2023-05-10T08:35:49;23.70;99.90
28177;DHT22;15461;41.652;9.378;2023-05-10T08:38:15;23.70;99.90
28177;DHT22;15461;41.652;9.378;2023-05-10T08:40:42;23.80;99.90
28177;DHT22;15461;41.652;9.378;2023-05-10T08:43:12;23.80;99.90
28177;DHT22;15461;41.652;9.378;2023-05-10T08:45:40;23.90;99.90
28177;DHT22;15461;41.652;9.378;2023-05-10T08:48:10;24.00;99.90
28177;DHT22;15461;41.652;9.378;2023-05-10T08:50:39;24.10;99.90
28177;DHT22;15461;41.652;9.378;2023-05-10T08:53:09;24.00;99.90
28177;DHT22;15461;41.652;9.378;2023-05-10T08:55:36;23.90;99.90
28177;DHT22;15461;41.652;9.378;2023-05-10T08:58:04;23.90;99.90
28177;DHT22;15461;41.652;9.378;2023-05-10T09:00:31;23.90;99.90
28177;DHT22;15461;41.652;9.378;2023-05-10T09:02:58;23.90;99.90
28177;DHT22;15461;41.652;9.378;2023-05-10T09:05:24;23.90;99.90
28177;DHT22;15461;41.652;9.378;2023-05-10T09:07:50;23.90;99.90
28177;DHT22;15461;41.652;9.378;2023-05-10T09:10:16;24.00;99.90
28177;DHT22;15461;41.652;9.378;2023-05-10T09:12:43;24.00;99.90
28177;DHT22;15461;41.652;9.378;2023-05-10T09:15:15;24.00;99.90
28177;DHT22;15461;41.652;9.378;2023-05-10T09:17:42;24.00;99.90
28177;DHT22;15461;41.652;9.378;2023-05-10T09:20:08;24.10;99.90
28177;DHT22;15461;41.652;9.378;2023-05-10T09:22:34;24.10;99.90
28177;DHT22;15461;41.652;9.378;2023-05-10T09:25:12;24.20;99.90
28177;DHT22;15461;41.652;9.378;2023-05-10T09:27:45;24.30;99.90
28177;DHT22;15461;41.652;9.378;2023-05-10T09:30:28;24.20;99.90
28177;DHT22;15461;41.652;9.378;2023-05-10T09:32:55;24.40;99.90
28177;DHT22;15461;41.652;9.378;2023-05-10T09:35:23;24.50;99.90
28177;DHT22;15461;41.652;9.378;2023-05-10T09:37:51;24.60;99.90
28177;DHT22;15461;41.652;9.378;2023-05-10T09:40:25;24.60;99.90
28177;DHT22;15461;41.652;9.378;2023-05-10T09:43:00;24.60;99.90
28177;DHT22;15461;41.652;9.378;2023-05-10T09:45:31;24.60;99.90
28177;DHT22;15461;41.652;9.378;2023-05-10T09:47:58;24.60;99.90
28177;DHT22;15461;41.652;9.378;2023-05-10T09:50:25;24.70;99.90
28177;DHT22;15461;41.652;9.378;2023-05-10T09:58:05;24.80;99.90
28177;DHT22;15461;41.652;9.378;2023-05-10T10:00:39;24.90;99.90
28177;DHT22;15461;41.652;9.378;2023-05-10T10:03:06;24.90;99.90
28177;DHT22;15461;41.652;9.378;2023-05-10T10:05:40;25.00;99.90
28177;DHT22;15461;41.652;9.378;2023-05-10T10:08:08;25.00;99.90
28177;DHT22;15461;41.652;9.378;2023-05-10T10:10:34;25.10;99.90
28177;DHT22;15461;41.652;9.378;2023-05-10T10:13:01;25.20;99.90
28177;DHT22;15461;41.652;9.378;2023-05-10T10:15:27;25.30;99.90
28177;DHT22;15461;41.652;9.378;2023-05-10T10:17:53;25.30;99.90
28177;DHT22;15461;41.652;9.378;2023-05-10T10:20:21;25.40;99.90
28177;DHT22;15461;41.652;9.378;2023-05-10T10:22:48;25.40;99.90
28177;DHT22;15461;41.652;9.378;2023-05-10T10:25:16;25.50;99.90
28177;DHT22;15461;41.652;9.378;2023-05-10T10:30:57;25.60;99.90
28177;DHT22;15461;41.652;9.378;2023-05-10T10:36:46;25.30;99.90
28177;DHT22;15461;41.652;9.378;2023-05-10T10:39:13;25.40;99.90
28177;DHT22;15461;41.652;9.378;2023-05-10T10:41:49;25.30;99.90
28177;DHT22;15461;41.652;9.378;2023-05-10T10:49:43;25.20;99.90
28177;DHT22;15461;41.652;9.378;2023-05-10T10:52:40;25.20;99.90
28177;DHT22;15461;41.652;9.378;2023-05-10T10:55:11;25.40;99.90
28177;DHT22;15461;41.652;9.378;2023-05-10T11:00:31;25.40;99.90
28177;DHT22;15461;41.652;9.378;2023-05-10T11:03:07;25.50;99.90
28177;DHT22;15461;41.652;9.378;2023-05-10T11:10:35;25.60;99.90
28177;DHT22;15461;41.652;9.378;2023-05-10T11:13:04;25.60;99.90
28177;DHT22;15461;41.652;9.378;2023-05-10T11:15:36;25.50;99.90
28177;DHT22;15461;41.652;9.378;2023-05-10T11:18:19;25.50;99.90
28177;DHT22;15461;41.652;9.378;2023-05-10T11:20:56;25.40;99.90
28177;DHT22;15461;41.652;9.378;2023-05-10T11:23:22;25.40;99.90
28177;DHT22;15461;41.652;9.378;2023-05-10T11:25:49;25.50;99.90
28177;DHT22;15461;41.652;9.378;2023-05-10T11:28:17;25.80;99.90
28177;DHT22;15461;41.652;9.378;2023-05-10T11:30:45;25.80;99.90
28177;DHT22;15461;41.652;9.378;2023-05-10T11:33:18;25.80;99.90
28177;DHT22;15461;41.652;9.378;2023-05-10T11:35:45;25.80;99.90
28177;DHT22;15461;41.652;9.378;2023-05-10T11:38:12;25.90;99.90
28177;DHT22;15461;41.652;9.378;2023-05-10T11:40:39;25.80;99.90
28177;DHT22;15461;41.652;9.378;2023-05-10T11:43:06;25.70;99.90
28177;DHT22;15461;41.652;9.378;2023-05-10T11:45:32;25.60;99.90
28177;DHT22;15461;41.652;9.378;2023-05-10T11:47:59;25.60;99.90
28177;DHT22;15461;41.652;9.378;2023-05-10T11:50:25;25.50;99.90
28177;DHT22;15461;41.652;9.378;2023-05-10T11:52:52;25.50;99.90
28177;DHT22;15461;41.652;9.378;2023-05-10T11:55:19;25.50;99.90
28177;DHT22;15461;41.652;9.378;2023-05-10T11:57:45;25.60;99.90
28177;DHT22;15461;41.652;9.378;2023-05-10T12:00:12;25.50;99.90
28177;DHT22;15461;41.652;9.378;2023-05-10T12:02:39;25.40;99.90
28177;DHT22;15461;41.652;9.378;2023-05-10T12:05:05;25.30;99.90
28177;DHT22;15461;41.652;9.378;2023-05-10T12:07:32;25.30;99.90
28177;DHT22;15461;41.652;9.378;2023-05-10T12:10:17;25.50;99.90
28177;DHT22;15461;41.652;9.378;2023-05-10T12:12:52;25.70;99.90
28177;DHT22;15461;41.652;9.378;2023-05-10T12:15:19;25.70;99.90
28177;DHT22;15461;41.652;9.378;2023-05-10T12:17:45;25.60;99.90
28177;DHT22;15461;41.652;9.378;2023-05-10T12:20:23;25.60;99.90
28177;DHT22;15461;41.652;9.378;2023-05-10T12:22:56;25.60;99.90
28177;DHT22;15461;41.652;9.378;2023-05-10T12:25:24;25.50;99.90
28177;DHT22;15461;41.652;9.378;2023-05-10T12:27:55;24.70;99.90
28177;DHT22;15461;41.652;9.378;2023-05-10T12:32:48;24.30;99.90
28177;DHT22;15461;41.652;9.378;2023-05-10T12:35:14;24.20;99.90
28177;DHT22;15461;41.652;9.378;2023-05-10T12:37:41;24.00;99.90
28177;DHT22;15461;41.652;9.378;2023-05-10T12:40:10;23.70;99.90
28177;DHT22;15461;41.652;9.378;2023-05-10T12:42:38;23.80;99.90
28177;DHT22;15461;41.652;9.378;2023-05-10T12:45:05;23.60;99.90
28177;DHT22;15461;41.652;9.378;2023-05-10T12:47:32;23.70;99.90
28177;DHT22;15461;41.652;9.378;2023-05-10T12:50:00;23.80;99.90
28177;DHT22;15461;41.652;9.378;2023-05-10T12:52:26;23.70;99.90
28177;DHT22;15461;41.652;9.378;2023-05-10T12:54:53;23.60;99.90
28177;DHT22;15461;41.652;9.378;2023-05-10T12:57:20;23.70;99.90
28177;DHT22;15461;41.652;9.378;2023-05-10T12:59:46;23.80;99.90
28177;DHT22;15461;41.652;9.378;2023-05-10T13:02:11;23.80;99.90
28177;DHT22;15461;41.652;9.378;2023-05-10T13:04:38;23.60;99.90
28177;DHT22;15461;41.652;9.378;2023-05-10T13:07:07;23.30;99.90
28177;DHT22;15461;41.652;9.378;2023-05-10T13:09:33;23.00;99.90
28177;DHT22;15461;41.652;9.378;2023-05-10T13:11:59;23.00;99.90
28177;DHT22;15461;41.652;9.378;2023-05-10T13:14:25;23.10;99.90
28177;DHT22;15461;41.652;9.378;2023-05-10T13:16:51;23.30;99.90
28177;DHT22;15461;41.652;9.378;2023-05-10T13:19:17;23.40;99.90
28177;DHT22;15461;41.652;9.378;2023-05-10T13:21:44;23.20;99.90
28177;DHT22;15461;41.652;9.378;2023-05-10T13:24:10;22.80;99.90
28177;DHT22;15461;41.652;9.378;2023-05-10T13:26:39;22.40;99.90
28177;DHT22;15461;41.652;9.378;2023-05-10T13:29:06;22.50;99.90
28177;DHT22;15461;41.652;9.378;2023-05-10T13:31:33;22.60;99.90
28177;DHT22;15461;41.652;9.378;2023-05-10T13:34:03;22.80;99.90
28177;DHT22;15461;41.652;9.378;2023-05-10T13:36:29;23.00;99.90
28177;DHT22;15461;41.652;9.378;2023-05-10T13:38:55;22.90;99.90
28177;DHT22;15461;41.652;9.378;2023-05-10T13:41:20;22.70;99.90
28177;DHT22;15461;41.652;9.378;2023-05-10T13:43:47;22.60;99.90
28177;DHT22;15461;41.652;9.378;2023-05-10T13:46:14;22.60;99.90
28177;DHT22;15461;41.652;9.378;2023-05-10T13:48:40;22.50;99.90
28177;DHT22;15461;41.652;9.378;2023-05-10T13:51:06;22.50;99.90
28177;DHT22;15461;41.652;9.378;2023-05-10T13:53:32;22.50;99.90
28177;DHT22;15461;41.652;9.378;2023-05-10T13:55:57;22.50;99.90
28177;DHT22;15461;41.652;9.378;2023-05-10T13:58:23;22.80;99.90
28177;DHT22;15461;41.652;9.378;2023-05-10T14:00:49;23.10;99.90
28177;DHT22;15461;41.652;9.378;2023-05-10T14:03:15;23.30;99.90
28177;DHT22;15461;41.652;9.378;2023-05-10T14:05:41;23.00;99.90
28177;DHT22;15461;41.652;9.378;2023-05-10T14:08:07;22.70;99.90
28177;DHT22;15461;41.652;9.378;2023-05-10T14:10:34;22.60;99.90
28177;DHT22;15461;41.652;9.378;2023-05-10T14:13:00;22.50;99.90
28177;DHT22;15461;41.652;9.378;2023-05-10T14:15:26;22.40;99.90
28177;DHT22;15461;41.652;9.378;2023-05-10T14:17:52;22.50;99.90
28177;DHT22;15461;41.652;9.378;2023-05-10T14:20:18;22.60;99.90
28177;DHT22;15461;41.652;9.378;2023-05-10T14:22:44;22.80;99.90
28177;DHT22;15461;41.652;9.378;2023-05-10T14:25:10;23.00;99.90
28177;DHT22;15461;41.652;9.378;2023-05-10T14:27:37;23.10;99.90
28177;DHT22;15461;41.652;9.378;2023-05-10T14:30:03;23.20;99.90
28177;DHT22;15461;41.652;9.378;2023-05-10T14:32:29;23.30;99.90
28177;DHT22;15461;41.652;9.378;2023-05-10T14:34:57;23.30;99.90
28177;DHT22;15461;41.652;9.378;2023-05-10T14:37:23;23.20;99.90
28177;DHT22;15461;41.652;9.378;2023-05-10T14:39:49;23.10;99.90
28177;DHT22;15461;41.652;9.378;2023-05-10T14:42:16;23.00;99.90
28177;DHT22;15461;41.652;9.378;2023-05-10T14:44:42;22.80;99.90
28177;DHT22;15461;41.652;9.378;2023-05-10T14:47:08;22.70;99.90
28177;DHT22;15461;41.652;9.378;2023-05-10T14:49:34;22.70;99.90
28177;DHT22;15461;41.652;9.378;2023-05-10T14:51:59;22.80;99.90
28177;DHT22;15461;41.652;9.378;2023-05-10T14:54:25;23.00;99.90
28177;DHT22;15461;41.652;9.378;2023-05-10T14:56:51;23.20;99.90
28177;DHT22;15461;41.652;9.378;2023-05-10T14:59:17;23.30;99.90
28177;DHT22;15461;41.652;9.378;2023-05-10T15:01:43;23.40;99.90
28177;DHT22;15461;41.652;9.378;2023-05-10T15:04:09;23.30;99.90
28177;DHT22;15461;41.652;9.378;2023-05-10T15:06:35;23.30;99.90
28177;DHT22;15461;41.652;9.378;2023-05-10T15:09:03;23.30;99.90
28177;DHT22;15461;41.652;9.378;2023-05-10T15:11:29;23.20;99.90
28177;DHT22;15461;41.652;9.378;2023-05-10T15:13:55;23.00;99.90
28177;DHT22;15461;41.652;9.378;2023-05-10T15:16:21;22.60;99.90
28177;DHT22;15461;41.652;9.378;2023-05-10T15:18:48;22.40;99.90
28177;DHT22;15461;41.652;9.378;2023-05-10T15:21:13;22.40;99.90
28177;DHT22;15461;41.652;9.378;2023-05-10T15:23:39;22.40;99.90
28177;DHT22;15461;41.652;9.378;2023-05-10T15:26:05;22.40;99.90
28177;DHT22;15461;41.652;9.378;2023-05-10T15:28:31;22.40;99.90
28177;DHT22;15461;41.652;9.378;2023-05-10T15:30:57;22.50;99.90
28177;DHT22;15461;41.652;9.378;2023-05-10T15:33:23;22.40;99.90
28177;DHT22;15461;41.652;9.378;2023-05-10T15:35:50;22.50;99.90
28177;DHT22;15461;41.652;9.378;2023-05-10T15:38:15;22.60;99.90
28177;DHT22;15461;41.652;9.378;2023-05-10T15:40:41;22.90;99.90
28177;DHT22;15461;41.652;9.378;2023-05-10T15:43:07;22.90;99.90
28177;DHT22;15461;41.652;9.378;2023-05-10T15:45:33;22.80;99.90
28177;DHT22;15461;41.652;9.378;2023-05-10T15:47:59;22.70;99.90
28177;DHT22;15461;41.652;9.378;2023-05-10T15:50:25;22.60;99.90
28177;DHT22;15461;41.652;9.378;2023-05-10T15:52:52;22.50;99.90
28177;DHT22;15461;41.652;9.378;2023-05-10T15:55:19;22.50;99.90
28177;DHT22;15461;41.652;9.378;2023-05-10T15:57:45;22.60;99.90
28177;DHT22;15461;41.652;9.378;2023-05-10T16:00:12;22.70;99.90
28177;DHT22;15461;41.652;9.378;2023-05-10T16:02:39;22.70;99.90
28177;DHT22;15461;41.652;9.378;2023-05-10T16:05:05;22.70;99.90
28177;DHT22;15461;41.652;9.378;2023-05-10T16:07:31;22.60;99.90
28177;DHT22;15461;41.652;9.378;2023-05-10T16:09:57;22.50;99.90
28177;DHT22;15461;41.652;9.378;2023-05-10T16:12:23;22.60;99.90